createdAt,value
2022-12-18T00:02:27.569Z,15.27
2022-12-18T00:06:32.044Z,16.50
2022-12-18T00:10:37.086Z,16.33
2022-12-18T00:14:40.642Z,15.97
2022-12-18T00:18:45.801Z,11.90
2022-12-18T00:22:49.283Z,12.70
2022-12-18T00:26:54.449Z,15.57
2022-12-18T00:31:03.620Z,12.70
2022-12-18T00:35:08.874Z,14.23
2022-12-18T00:39:15.339Z,12.50
2022-12-18T00:43:20.725Z,11.30
2022-12-18T00:47:24.447Z,11.93
2022-12-18T00:51:28.661Z,11.60
2022-12-18T00:55:33.168Z,13.40
2022-12-18T00:59:38.939Z,14.20
2022-12-18T01:03:42.933Z,13.37
2022-12-18T01:07:46.776Z,11.57
2022-12-18T01:11:50.759Z,11.30
2022-12-18T01:15:56.449Z,11.17
2022-12-18T01:20:01.057Z,11.57
2022-12-18T01:24:05.068Z,10.90
2022-12-18T01:28:08.920Z,11.00
2022-12-18T01:32:14.492Z,10.40
2022-12-18T01:36:21.531Z,12.57
2022-12-18T01:40:25.751Z,10.10
2022-12-18T01:44:57.596Z,11.60
2022-12-18T01:49:04.432Z,10.07
2022-12-18T01:53:14.304Z,9.37
2022-12-18T01:57:18.618Z,9.87
2022-12-18T02:01:26.313Z,9.60
2022-12-18T02:05:47.991Z,10.50
2022-12-18T02:09:59.831Z,9.10
2022-12-18T02:14:15.012Z,8.50
2022-12-18T02:18:24.313Z,9.67
2022-12-18T02:22:41.110Z,11.10
2022-12-18T02:26:52.471Z,9.57
2022-12-18T02:30:58.793Z,8.30
2022-12-18T02:35:04.710Z,9.70
2022-12-18T02:39:11.734Z,9.57
2022-12-18T02:43:18.527Z,8.00
2022-12-18T02:47:24.485Z,9.73
2022-12-18T02:51:36.457Z,8.07
2022-12-18T02:55:53.558Z,9.30
2022-12-18T03:00:05.199Z,6.63
2022-12-18T03:04:15.058Z,7.60
2022-12-18T03:08:23.130Z,7.40
2022-12-18T03:12:34.109Z,8.77
2022-12-18T03:16:40.346Z,7.17
2022-12-18T03:20:47.563Z,8.70
2022-12-18T03:24:52.206Z,6.27
2022-12-18T03:29:00.446Z,8.27
2022-12-18T03:33:13.077Z,7.80
2022-12-18T03:37:17.490Z,6.73
2022-12-18T03:41:30.628Z,10.40
2022-12-18T03:45:39.651Z,7.67
2022-12-18T03:49:51.907Z,7.83
2022-12-18T03:54:00.691Z,7.07
2022-12-18T03:58:09.630Z,7.80
2022-12-18T04:02:13.878Z,9.10
2022-12-18T04:06:40.490Z,7.70
2022-12-18T04:10:44.844Z,7.47
2022-12-18T04:14:48.744Z,6.80
2022-12-18T04:18:52.927Z,6.77
2022-12-18T04:22:59.384Z,7.10
2022-12-18T04:27:04.301Z,7.90
2022-12-18T04:31:10.386Z,5.87
2022-12-18T04:35:14.381Z,8.73
2022-12-18T04:39:19.741Z,5.80
2022-12-18T04:43:24.007Z,6.40
2022-12-18T04:47:27.812Z,6.00
2022-12-18T04:51:32.185Z,7.60
2022-12-18T04:55:37.635Z,7.40
2022-12-18T04:59:42.513Z,6.37
2022-12-18T05:03:46.409Z,7.07
2022-12-18T05:07:50.806Z,4.63
2022-12-18T05:11:56.876Z,5.60
2022-12-18T05:16:01.784Z,5.30
2022-12-18T05:20:06.028Z,4.90
2022-12-18T05:24:10.121Z,5.70
2022-12-18T05:28:15.034Z,6.17
2022-12-18T05:32:18.788Z,5.87
2022-12-18T05:36:22.372Z,5.83
2022-12-18T05:40:26.048Z,4.53
2022-12-18T05:44:31.823Z,5.90
2022-12-18T05:48:36.168Z,6.40
2022-12-18T05:52:39.768Z,4.93
2022-12-18T05:56:48.491Z,6.50
2022-12-18T06:00:54.554Z,4.80
2022-12-18T06:04:58.747Z,6.13
2022-12-18T06:09:02.541Z,5.70
2022-12-18T06:13:06.929Z,4.73
2022-12-18T06:17:11.874Z,6.43
2022-12-18T06:21:15.399Z,6.97
2022-12-18T06:25:19.500Z,5.20
2022-12-18T06:29:23.153Z,6.90
2022-12-18T06:33:30.444Z,6.50
2022-12-18T06:37:34.060Z,8.53
2022-12-18T06:41:37.894Z,9.03
2022-12-18T06:45:42.296Z,7.27
2022-12-18T06:49:48.391Z,8.93
2022-12-18T06:53:52.151Z,9.53
2022-12-18T06:57:56.278Z,9.40
2022-12-18T07:01:59.923Z,10.70
2022-12-18T07:06:05.877Z,7.90
2022-12-18T07:10:09.863Z,6.83
2022-12-18T07:14:13.397Z,9.63
2022-12-18T07:18:17.068Z,8.60
2022-12-18T07:22:22.168Z,8.23
2022-12-18T07:26:25.880Z,10.20
2022-12-18T07:30:29.668Z,10.30
2022-12-18T07:34:33.216Z,13.00
2022-12-18T07:38:38.708Z,11.50
2022-12-18T07:42:43.031Z,15.50
2022-12-18T07:46:47.327Z,13.63
2022-12-18T07:50:51.461Z,14.83
2022-12-18T07:54:56.846Z,13.40
2022-12-18T07:59:01.181Z,11.17
2022-12-18T08:03:04.925Z,16.20
2022-12-18T08:07:11.936Z,12.20
2022-12-18T08:11:16.876Z,11.20
2022-12-18T08:15:20.722Z,13.40
2022-12-18T08:19:24.272Z,13.73
2022-12-18T08:23:28.971Z,15.60
2022-12-18T08:27:34.124Z,19.30
2022-12-18T08:31:37.987Z,14.37
2022-12-18T08:35:45.780Z,14.83
2022-12-18T08:39:49.896Z,13.30
2022-12-18T08:44:12.383Z,11.37
2022-12-18T08:48:21.875Z,15.60
2022-12-18T08:52:26.019Z,18.17
2022-12-18T08:56:31.032Z,17.83
2022-12-18T09:00:36.448Z,18.60
2022-12-18T09:04:41.078Z,13.50
2022-12-18T09:08:45.072Z,13.67
2022-12-18T09:12:48.621Z,10.57
2022-12-18T09:16:54.403Z,12.20
2022-12-18T09:20:58.105Z,13.77
2022-12-18T09:25:01.545Z,13.00
2022-12-18T09:29:05.924Z,13.10
2022-12-18T09:33:11.351Z,14.20
2022-12-18T09:37:14.960Z,10.87
2022-12-18T09:41:38.117Z,11.17
2022-12-18T09:45:45.978Z,10.90
2022-12-18T09:49:55.209Z,12.73
2022-12-18T09:54:03.050Z,10.30
2022-12-18T09:58:22.024Z,13.70
2022-12-18T10:02:28.043Z,12.63
2022-12-18T10:06:41.821Z,12.00
2022-12-18T10:10:51.395Z,14.90
2022-12-18T10:15:00.514Z,14.23
2022-12-18T10:19:15.805Z,15.60
2022-12-18T10:23:28.669Z,16.40
2022-12-18T10:27:33.026Z,18.03
2022-12-18T10:31:37.281Z,15.97
2022-12-18T10:35:44.184Z,16.53
2022-12-18T10:40:22.400Z,16.70
2022-12-18T10:44:27.286Z,16.63
2022-12-18T10:48:32.282Z,17.30
2022-12-18T10:52:37.772Z,17.20
2022-12-18T10:56:46.806Z,16.90
2022-12-18T11:01:09.399Z,16.00
2022-12-18T11:05:31.167Z,16.97
2022-12-18T11:09:36.568Z,16.27
2022-12-18T11:13:42.405Z,16.30
2022-12-18T11:17:50.014Z,16.10
2022-12-18T11:21:53.680Z,14.90
2022-12-18T11:26:02.907Z,14.90
2022-12-18T11:30:23.078Z,14.83
2022-12-18T11:34:31.364Z,16.90
2022-12-18T11:38:37.947Z,14.80
2022-12-18T11:42:48.139Z,17.47
2022-12-18T11:46:58.663Z,16.23
2022-12-18T11:51:05.403Z,16.30
2022-12-18T11:55:16.432Z,15.03
2022-12-18T11:59:35.288Z,14.13
2022-12-18T12:04:05.011Z,17.50
2022-12-18T12:08:19.142Z,16.87
2022-12-18T12:12:49.070Z,14.37
2022-12-18T12:17:00.042Z,13.20
2022-12-18T12:21:12.417Z,16.60
2022-12-18T12:25:35.662Z,15.20
2022-12-18T12:29:52.338Z,18.20
2022-12-18T12:38:30.019Z,14.13
2022-12-18T12:42:55.862Z,16.50
2022-12-18T12:47:04.652Z,18.53
2022-12-18T12:51:18.573Z,16.37
2022-12-18T12:55:26.318Z,23.10
2022-12-18T12:59:41.219Z,20.20
2022-12-18T13:03:51.347Z,18.03
2022-12-18T13:07:59.068Z,18.23
2022-12-18T13:12:29.081Z,19.60
2022-12-18T13:16:32.463Z,19.23
2022-12-18T13:20:37.381Z,20.30
2022-12-18T13:24:42.386Z,19.43
2022-12-18T13:28:55.592Z,17.57
2022-12-18T13:33:56.305Z,20.83
2022-12-18T13:38:02.255Z,20.33
2022-12-18T13:42:58.218Z,14.90
2022-12-18T13:47:04.767Z,18.63
2022-12-18T13:51:12.197Z,16.03
2022-12-18T13:55:21.034Z,20.07
2022-12-18T13:59:26.530Z,21.40
2022-12-18T14:03:33.063Z,20.30
2022-12-18T14:07:41.889Z,20.00
2022-12-18T14:11:52.403Z,18.37
2022-12-18T14:15:56.689Z,19.23
2022-12-18T14:20:02.801Z,16.90
2022-12-18T14:24:08.867Z,17.47
2022-12-18T14:28:18.047Z,19.20
2022-12-18T14:32:23.696Z,17.47
2022-12-18T14:36:30.816Z,19.47
2022-12-18T14:40:34.451Z,21.67
2022-12-18T14:44:50.787Z,16.93
2022-12-18T14:49:02.680Z,24.97
2022-12-18T14:53:07.329Z,24.50
2022-12-18T14:57:24.973Z,19.70
2022-12-18T15:01:32.601Z,19.07
2022-12-18T15:05:38.130Z,18.63
2022-12-18T15:09:46.066Z,18.10
2022-12-18T15:13:50.305Z,17.93
2022-12-18T15:18:01.441Z,21.37
2022-12-18T15:22:06.771Z,21.33
2022-12-18T15:26:14.487Z,22.63
2022-12-18T15:30:26.496Z,21.00
2022-12-18T15:34:32.989Z,21.97
2022-12-18T15:38:37.662Z,20.33
2022-12-18T15:43:02.558Z,19.70
2022-12-18T15:47:10.615Z,23.50
2022-12-18T15:51:19.217Z,20.80
2022-12-18T15:56:01.007Z,22.20
2022-12-18T16:00:09.328Z,21.90
2022-12-18T16:04:16.226Z,27.83
2022-12-18T16:08:24.385Z,26.33
2022-12-18T16:12:29.210Z,23.10
2022-12-18T16:16:34.414Z,22.00
2022-12-18T16:20:40.309Z,22.00
2022-12-18T16:24:45.438Z,20.00
2022-12-18T16:28:50.448Z,17.47
2022-12-18T16:32:56.986Z,21.83
2022-12-18T16:37:05.726Z,20.40
2022-12-18T16:41:37.455Z,41.10
2022-12-18T16:45:41.620Z,19.20
2022-12-18T16:49:52.238Z,20.90
2022-12-18T16:53:58.264Z,20.53
2022-12-18T16:58:04.046Z,21.23
2022-12-18T17:02:09.938Z,17.87
2022-12-18T17:06:16.209Z,18.67
2022-12-18T17:10:22.296Z,17.80
2022-12-18T17:14:31.114Z,16.50
2022-12-18T17:18:37.217Z,16.63
2022-12-18T17:22:52.258Z,19.10
2022-12-18T17:26:56.979Z,19.80
2022-12-18T17:31:01.290Z,18.97
2022-12-18T17:35:07.450Z,22.80
2022-12-18T17:39:21.065Z,19.57
2022-12-18T17:43:25.162Z,19.13
2022-12-18T17:47:29.776Z,19.50
2022-12-18T17:51:35.592Z,18.63
2022-12-18T17:55:41.688Z,19.63
2022-12-18T17:59:46.887Z,20.37
2022-12-18T18:03:53.716Z,19.80
2022-12-18T18:07:59.257Z,19.00
2022-12-18T18:12:23.641Z,19.00
2022-12-18T18:16:28.492Z,23.90
2022-12-18T18:20:41.679Z,22.10
2022-12-18T18:24:47.179Z,21.47
2022-12-18T18:28:58.500Z,20.07
2022-12-18T18:33:10.330Z,19.30
2022-12-18T18:37:17.937Z,20.27
2022-12-18T18:41:24.750Z,19.67
2022-12-18T18:45:30.521Z,20.87
2022-12-18T18:49:35.954Z,22.20
2022-12-18T18:53:41.404Z,19.77
2022-12-18T18:57:47.035Z,20.93
2022-12-18T19:01:53.705Z,20.53
2022-12-18T19:06:00.213Z,19.63
2022-12-18T19:10:05.523Z,20.17
2022-12-18T19:14:12.863Z,19.87
2022-12-18T19:18:25.077Z,21.53
2022-12-18T19:22:29.533Z,21.93
2022-12-18T19:26:35.196Z,21.00
2022-12-18T19:30:42.393Z,19.77
2022-12-18T19:34:50.113Z,17.67
2022-12-18T19:39:03.060Z,19.57
2022-12-18T19:43:07.717Z,19.77
2022-12-18T19:47:12.584Z,22.30
2022-12-18T19:51:23.810Z,20.60
2022-12-18T19:55:30.004Z,20.70
2022-12-18T19:59:36.492Z,18.03
2022-12-18T20:03:44.250Z,19.73
2022-12-18T20:07:59.689Z,21.40
2022-12-18T20:12:04.308Z,19.27
2022-12-18T20:16:11.348Z,19.93
2022-12-18T20:20:17.097Z,21.50
2022-12-18T20:24:25.539Z,21.30
2022-12-18T20:28:29.900Z,17.40
2022-12-18T20:32:37.269Z,21.20
2022-12-18T20:36:42.231Z,20.80
2022-12-18T20:41:43.167Z,20.13
2022-12-18T20:45:49.906Z,20.17
2022-12-18T20:49:53.873Z,21.80
2022-12-18T20:54:00.786Z,19.40
2022-12-18T20:58:06.002Z,21.20
2022-12-18T21:02:12.289Z,20.40
2022-12-18T21:06:19.299Z,19.20
2022-12-18T21:10:23.014Z,18.43
2022-12-18T21:14:29.988Z,19.83
2022-12-18T21:18:33.959Z,19.90
2022-12-18T21:22:38.580Z,20.03
2022-12-18T21:26:45.787Z,19.53
2022-12-18T21:30:51.141Z,20.53
2022-12-18T21:35:08.506Z,19.67
2022-12-18T21:39:12.816Z,21.70
2022-12-18T21:43:35.305Z,19.67
2022-12-18T21:47:42.918Z,20.40
2022-12-18T21:51:47.197Z,20.93
2022-12-18T21:55:58.868Z,21.03
2022-12-18T22:00:03.541Z,19.57
2022-12-18T22:04:16.981Z,19.57
2022-12-18T22:08:22.565Z,19.20
2022-12-18T22:12:44.080Z,18.20
2022-12-18T22:16:49.502Z,18.20
2022-12-18T22:21:04.783Z,20.07
2022-12-18T22:25:10.593Z,19.20
2022-12-18T22:29:40.555Z,20.60
2022-12-18T22:33:44.762Z,18.23
2022-12-18T22:37:54.327Z,14.67
2022-12-18T22:41:59.189Z,15.97
2022-12-18T22:46:17.056Z,19.53
2022-12-18T22:50:22.958Z,18.57
2022-12-18T22:54:31.323Z,17.53
2022-12-18T22:58:35.914Z,20.63
2022-12-18T23:02:40.715Z,16.70
2022-12-18T23:06:45.918Z,18.17
2022-12-18T23:10:55.413Z,18.30
2022-12-18T23:14:59.426Z,17.27
2022-12-18T23:19:03.628Z,18.30
2022-12-18T23:23:07.316Z,19.23
2022-12-18T23:27:12.385Z,19.70
2022-12-18T23:31:18.217Z,18.03
2022-12-18T23:35:22.211Z,21.10
2022-12-18T23:39:29.329Z,20.00
2022-12-18T23:43:35.476Z,18.30
2022-12-18T23:47:39.482Z,20.30
2022-12-18T23:51:44.509Z,17.47
2022-12-18T23:55:49.923Z,18.77
2022-12-18T23:59:57.145Z,17.30
